sensor_id;sensor_type;location;lat;lon;timestamp;P1;durP1;ratioP1;P2;durP2;ratioP2
12623;SDS011;6377;42.836;23.998;2023-11-21T00:00:37;50.63;;;30.43;;
12623;SDS011;6377;42.836;23.998;2023-11-21T00:03:04;51.13;;;32.37;;
12623;SDS011;6377;42.836;23.998;2023-11-21T00:05:32;52.40;;;30.77;;
12623;SDS011;6377;42.836;23.998;2023-11-21T00:08:00;55.27;;;35.23;;
12623;SDS011;6377;42.836;23.998;2023-11-21T00:10:29;59.37;;;36.27;;
12623;SDS011;6377;42.836;23.998;2023-11-21T00:12:56;55.43;;;34.77;;
12623;SDS011;6377;42.836;23.998;2023-11-21T00:15:23;51.03;;;31.63;;
12623;SDS011;6377;42.836;23.998;2023-11-21T00:17:51;43.80;;;26.97;;
12623;SDS011;6377;42.836;23.998;2023-11-21T00:20:19;46.33;;;27.27;;
12623;SDS011;6377;42.836;23.998;2023-11-21T00:22:47;42.23;;;25.23;;
12623;SDS011;6377;42.836;23.998;2023-11-21T00:25:16;37.83;;;22.83;;
12623;SDS011;6377;42.836;23.998;2023-11-21T00:27:44;30.03;;;18.00;;
12623;SDS011;6377;42.836;23.998;2023-11-21T00:30:12;24.07;;;14.10;;
12623;SDS011;6377;42.836;23.998;2023-11-21T00:32:40;22.37;;;14.93;;
12623;SDS011;6377;42.836;23.998;2023-11-21T00:35:07;22.37;;;13.23;;
12623;SDS011;6377;42.836;23.998;2023-11-21T00:37:35;23.17;;;15.33;;
12623;SDS011;6377;42.836;23.998;2023-11-21T00:40:04;19.10;;;12.17;;
12623;SDS011;6377;42.836;23.998;2023-11-21T00:42:33;25.10;;;14.17;;
12623;SDS011;6377;42.836;23.998;2023-11-21T00:45:01;25.90;;;16.53;;
12623;SDS011;6377;42.836;23.998;2023-11-21T00:47:31;44.37;;;26.63;;
12623;SDS011;6377;42.836;23.998;2023-11-21T00:49:58;45.37;;;26.53;;
12623;SDS011;6377;42.836;23.998;2023-11-21T00:52:26;36.90;;;22.23;;
12623;SDS011;6377;42.836;23.998;2023-11-21T00:54:53;36.40;;;21.10;;
12623;SDS011;6377;42.836;23.998;2023-11-21T00:57:20;35.57;;;21.20;;
12623;SDS011;6377;42.836;23.998;2023-11-21T00:59:47;35.43;;;22.30;;
12623;SDS011;6377;42.836;23.998;2023-11-21T01:02:16;38.63;;;24.27;;
12623;SDS011;6377;42.836;23.998;2023-11-21T01:04:44;41.87;;;25.23;;
12623;SDS011;6377;42.836;23.998;2023-11-21T01:07:13;38.33;;;22.70;;
12623;SDS011;6377;42.836;23.998;2023-11-21T01:09:40;35.57;;;20.27;;
12623;SDS011;6377;42.836;23.998;2023-11-21T01:12:09;33.60;;;19.47;;
12623;SDS011;6377;42.836;23.998;2023-11-21T01:14:36;33.77;;;18.80;;
12623;SDS011;6377;42.836;23.998;2023-11-21T01:17:04;35.10;;;17.53;;
12623;SDS011;6377;42.836;23.998;2023-11-21T01:19:33;42.53;;;21.27;;
12623;SDS011;6377;42.836;23.998;2023-11-21T01:22:00;40.10;;;20.60;;
12623;SDS011;6377;42.836;23.998;2023-11-21T01:24:27;40.07;;;20.83;;
12623;SDS011;6377;42.836;23.998;2023-11-21T01:26:55;38.53;;;20.90;;
12623;SDS011;6377;42.836;23.998;2023-11-21T01:29:22;35.27;;;19.70;;
12623;SDS011;6377;42.836;23.998;2023-11-21T01:31:49;33.70;;;19.23;;
12623;SDS011;6377;42.836;23.998;2023-11-21T01:34:17;37.73;;;20.63;;
12623;SDS011;6377;42.836;23.998;2023-11-21T01:36:46;40.13;;;22.60;;
12623;SDS011;6377;42.836;23.998;2023-11-21T01:39:14;37.90;;;21.67;;
12623;SDS011;6377;42.836;23.998;2023-11-21T01:41:42;31.37;;;19.30;;
12623;SDS011;6377;42.836;23.998;2023-11-21T01:44:10;39.60;;;22.47;;
12623;SDS011;6377;42.836;23.998;2023-11-21T01:46:38;30.07;;;16.87;;
12623;SDS011;6377;42.836;23.998;2023-11-21T01:49:07;31.00;;;16.67;;
12623;SDS011;6377;42.836;23.998;2023-11-21T01:51:35;33.23;;;16.23;;
12623;SDS011;6377;42.836;23.998;2023-11-21T01:54:04;27.60;;;16.50;;
12623;SDS011;6377;42.836;23.998;2023-11-21T01:56:32;26.87;;;15.00;;
12623;SDS011;6377;42.836;23.998;2023-11-21T01:58:59;21.13;;;13.10;;
12623;SDS011;6377;42.836;23.998;2023-11-21T02:01:27;17.53;;;10.40;;
12623;SDS011;6377;42.836;23.998;2023-11-21T02:03:54;22.20;;;13.03;;
12623;SDS011;6377;42.836;23.998;2023-11-21T02:06:21;19.30;;;10.83;;
12623;SDS011;6377;42.836;23.998;2023-11-21T02:08:49;15.80;;;9.30;;
12623;SDS011;6377;42.836;23.998;2023-11-21T02:11:18;15.20;;;8.77;;
12623;SDS011;6377;42.836;23.998;2023-11-21T02:13:45;16.43;;;9.67;;
12623;SDS011;6377;42.836;23.998;2023-11-21T02:16:15;16.63;;;9.40;;
12623;SDS011;6377;42.836;23.998;2023-11-21T02:18:42;12.07;;;7.70;;
12623;SDS011;6377;42.836;23.998;2023-11-21T02:21:09;14.00;;;7.97;;
12623;SDS011;6377;42.836;23.998;2023-11-21T02:23:38;13.33;;;8.17;;
12623;SDS011;6377;42.836;23.998;2023-11-21T02:26:09;14.53;;;7.47;;
12623;SDS011;6377;42.836;23.998;2023-11-21T02:28:37;14.33;;;8.13;;
12623;SDS011;6377;42.836;23.998;2023-11-21T02:31:04;22.07;;;10.63;;
12623;SDS011;6377;42.836;23.998;2023-11-21T02:33:33;29.47;;;15.80;;
12623;SDS011;6377;42.836;23.998;2023-11-21T02:36:00;30.13;;;17.33;;
12623;SDS011;6377;42.836;23.998;2023-11-21T02:38:27;33.40;;;20.27;;
12623;SDS011;6377;42.836;23.998;2023-11-21T02:40:57;43.67;;;23.60;;
12623;SDS011;6377;42.836;23.998;2023-11-21T02:43:24;34.33;;;19.93;;
12623;SDS011;6377;42.836;23.998;2023-11-21T02:45:52;31.67;;;18.67;;
12623;SDS011;6377;42.836;23.998;2023-11-21T02:48:19;29.03;;;16.67;;
12623;SDS011;6377;42.836;23.998;2023-11-21T02:50:49;27.70;;;15.73;;
12623;SDS011;6377;42.836;23.998;2023-11-21T02:53:16;28.53;;;16.57;;
12623;SDS011;6377;42.836;23.998;2023-11-21T02:55:43;28.47;;;16.37;;
12623;SDS011;6377;42.836;23.998;2023-11-21T02:58:12;27.90;;;16.17;;
12623;SDS011;6377;42.836;23.998;2023-11-21T03:00:40;23.37;;;13.43;;
12623;SDS011;6377;42.836;23.998;2023-11-21T03:03:07;23.50;;;14.60;;
12623;SDS011;6377;42.836;23.998;2023-11-21T03:05:34;19.80;;;11.97;;
12623;SDS011;6377;42.836;23.998;2023-11-21T03:08:02;21.27;;;12.53;;
12623;SDS011;6377;42.836;23.998;2023-11-21T03:10:30;18.93;;;11.73;;
12623;SDS011;6377;42.836;23.998;2023-11-21T03:12:58;21.37;;;13.47;;
12623;SDS011;6377;42.836;23.998;2023-11-21T03:15:26;22.10;;;12.70;;
12623;SDS011;6377;42.836;23.998;2023-11-21T03:17:54;20.67;;;12.73;;
12623;SDS011;6377;42.836;23.998;2023-11-21T03:20:21;19.27;;;12.50;;
12623;SDS011;6377;42.836;23.998;2023-11-21T03:22:49;26.00;;;15.50;;
12623;SDS011;6377;42.836;23.998;2023-11-21T03:25:16;24.33;;;14.67;;
12623;SDS011;6377;42.836;23.998;2023-11-21T03:27:43;33.07;;;18.17;;
12623;SDS011;6377;42.836;23.998;2023-11-21T03:30:11;26.30;;;15.60;;
12623;SDS011;6377;42.836;23.998;2023-11-21T03:32:40;25.27;;;14.37;;
12623;SDS011;6377;42.836;23.998;2023-11-21T03:35:07;25.43;;;15.50;;
12623;SDS011;6377;42.836;23.998;2023-11-21T03:37:35;27.50;;;15.80;;
12623;SDS011;6377;42.836;23.998;2023-11-21T03:40:04;29.07;;;18.33;;
12623;SDS011;6377;42.836;23.998;2023-11-21T03:42:33;39.47;;;20.80;;
12623;SDS011;6377;42.836;23.998;2023-11-21T03:45:00;37.13;;;19.50;;
12623;SDS011;6377;42.836;23.998;2023-11-21T03:47:28;34.13;;;19.13;;
12623;SDS011;6377;42.836;23.998;2023-11-21T03:49:57;33.87;;;19.50;;
12623;SDS011;6377;42.836;23.998;2023-11-21T03:52:24;30.63;;;19.03;;
12623;SDS011;6377;42.836;23.998;2023-11-21T03:54:52;33.90;;;19.43;;
12623;SDS011;6377;42.836;23.998;2023-11-21T03:57:20;37.63;;;19.93;;
12623;SDS011;6377;42.836;23.998;2023-11-21T03:59:47;31.00;;;18.40;;
12623;SDS011;6377;42.836;23.998;2023-11-21T04:02:14;33.90;;;19.00;;
12623;SDS011;6377;42.836;23.998;2023-11-21T04:04:42;34.03;;;19.37;;
12623;SDS011;6377;42.836;23.998;2023-11-21T04:07:11;33.77;;;20.73;;
12623;SDS011;6377;42.836;23.998;2023-11-21T04:09:39;37.93;;;21.13;;
12623;SDS011;6377;42.836;23.998;2023-11-21T04:12:06;49.53;;;30.47;;
12623;SDS011;6377;42.836;23.998;2023-11-21T04:14:35;37.03;;;21.00;;
12623;SDS011;6377;42.836;23.998;2023-11-21T04:17:02;32.00;;;19.43;;
12623;SDS011;6377;42.836;23.998;2023-11-21T04:19:29;36.80;;;21.30;;
12623;SDS011;6377;42.836;23.998;2023-11-21T04:21:57;47.97;;;24.43;;
12623;SDS011;6377;42.836;23.998;2023-11-21T04:24:25;39.67;;;21.97;;
12623;SDS011;6377;42.836;23.998;2023-11-21T04:26:52;43.03;;;21.87;;
12623;SDS011;6377;42.836;23.998;2023-11-21T04:29:19;39.53;;;21.83;;
12623;SDS011;6377;42.836;23.998;2023-11-21T04:31:48;40.23;;;23.37;;
12623;SDS011;6377;42.836;23.998;2023-11-21T04:34:15;41.80;;;24.10;;
12623;SDS011;6377;42.836;23.998;2023-11-21T04:36:42;41.83;;;23.87;;
12623;SDS011;6377;42.836;23.998;2023-11-21T04:39:09;48.97;;;28.50;;
12623;SDS011;6377;42.836;23.998;2023-11-21T04:41:38;36.23;;;21.17;;
12623;SDS011;6377;42.836;23.998;2023-11-21T04:44:05;39.93;;;24.07;;
12623;SDS011;6377;42.836;23.998;2023-11-21T04:46:33;52.90;;;30.50;;
12623;SDS011;6377;42.836;23.998;2023-11-21T04:49:00;72.37;;;43.07;;
12623;SDS011;6377;42.836;23.998;2023-11-21T04:51:27;46.83;;;29.03;;
12623;SDS011;6377;42.836;23.998;2023-11-21T04:53:55;57.27;;;36.93;;
12623;SDS011;6377;42.836;23.998;2023-11-21T04:56:22;61.17;;;36.90;;
12623;SDS011;6377;42.836;23.998;2023-11-21T04:58:51;63.47;;;38.17;;
12623;SDS011;6377;42.836;23.998;2023-11-21T05:01:19;53.40;;;33.87;;
12623;SDS011;6377;42.836;23.998;2023-11-21T05:03:46;52.90;;;32.63;;
12623;SDS011;6377;42.836;23.998;2023-11-21T05:06:14;56.33;;;32.40;;
12623;SDS011;6377;42.836;23.998;2023-11-21T05:08:41;60.53;;;33.63;;
12623;SDS011;6377;42.836;23.998;2023-11-21T05:11:09;56.80;;;32.90;;
12623;SDS011;6377;42.836;23.998;2023-11-21T05:13:37;59.73;;;34.87;;
12623;SDS011;6377;42.836;23.998;2023-11-21T05:16:06;52.83;;;31.50;;
12623;SDS011;6377;42.836;23.998;2023-11-21T05:18:33;43.10;;;26.93;;
12623;SDS011;6377;42.836;23.998;2023-11-21T05:21:01;46.07;;;27.80;;
12623;SDS011;6377;42.836;23.998;2023-11-21T05:23:28;45.80;;;26.80;;
12623;SDS011;6377;42.836;23.998;2023-11-21T05:25:55;43.20;;;26.00;;
12623;SDS011;6377;42.836;23.998;2023-11-21T05:28:23;50.17;;;29.50;;
12623;SDS011;6377;42.836;23.998;2023-11-21T05:30:50;60.10;;;32.00;;
12623;SDS011;6377;42.836;23.998;2023-11-21T05:33:19;53.50;;;29.63;;
12623;SDS011;6377;42.836;23.998;2023-11-21T05:35:47;64.47;;;39.03;;
12623;SDS011;6377;42.836;23.998;2023-11-21T05:38:14;64.83;;;39.17;;
12623;SDS011;6377;42.836;23.998;2023-11-21T05:40:40;71.40;;;40.53;;
12623;SDS011;6377;42.836;23.998;2023-11-21T05:43:09;77.10;;;42.73;;
12623;SDS011;6377;42.836;23.998;2023-11-21T05:45:37;70.83;;;42.70;;
12623;SDS011;6377;42.836;23.998;2023-11-21T05:48:04;113.03;;;57.80;;
12623;SDS011;6377;42.836;23.998;2023-11-21T05:50:33;131.93;;;66.43;;
12623;SDS011;6377;42.836;23.998;2023-11-21T05:53:00;213.13;;;95.23;;
12623;SDS011;6377;42.836;23.998;2023-11-21T05:55:27;168.63;;;87.77;;
12623;SDS011;6377;42.836;23.998;2023-11-21T05:57:55;155.10;;;77.10;;
12623;SDS011;6377;42.836;23.998;2023-11-21T06:00:22;137.03;;;74.63;;
12623;SDS011;6377;42.836;23.998;2023-11-21T06:02:51;133.93;;;74.50;;
12623;SDS011;6377;42.836;23.998;2023-11-21T06:05:19;145.27;;;74.97;;
12623;SDS011;6377;42.836;23.998;2023-11-21T06:07:50;137.93;;;75.97;;
12623;SDS011;6377;42.836;23.998;2023-11-21T06:10:19;155.27;;;81.50;;
12623;SDS011;6377;42.836;23.998;2023-11-21T06:12:47;194.73;;;101.33;;
12623;SDS011;6377;42.836;23.998;2023-11-21T06:15:14;189.40;;;98.47;;
12623;SDS011;6377;42.836;23.998;2023-11-21T06:17:44;189.43;;;99.87;;
12623;SDS011;6377;42.836;23.998;2023-11-21T06:20:15;183.53;;;100.77;;
12623;SDS011;6377;42.836;23.998;2023-11-21T06:22:44;189.50;;;101.27;;
12623;SDS011;6377;42.836;23.998;2023-11-21T06:25:13;190.70;;;97.07;;
12623;SDS011;6377;42.836;23.998;2023-11-21T06:27:41;175.93;;;95.07;;
12623;SDS011;6377;42.836;23.998;2023-11-21T06:30:10;205.27;;;114.17;;
12623;SDS011;6377;42.836;23.998;2023-11-21T06:32:39;176.40;;;97.63;;
12623;SDS011;6377;42.836;23.998;2023-11-21T06:35:06;188.90;;;104.60;;
12623;SDS011;6377;42.836;23.998;2023-11-21T06:37:35;169.50;;;93.53;;
12623;SDS011;6377;42.836;23.998;2023-11-21T06:40:03;182.03;;;101.37;;
12623;SDS011;6377;42.836;23.998;2023-11-21T06:42:33;170.97;;;94.77;;
12623;SDS011;6377;42.836;23.998;2023-11-21T06:45:00;155.00;;;92.20;;
12623;SDS011;6377;42.836;23.998;2023-11-21T06:47:29;146.63;;;86.50;;
12623;SDS011;6377;42.836;23.998;2023-11-21T06:49:56;137.27;;;84.87;;
12623;SDS011;6377;42.836;23.998;2023-11-21T06:52:25;139.47;;;84.07;;
12623;SDS011;6377;42.836;23.998;2023-11-21T06:54:52;420.23;;;193.90;;
12623;SDS011;6377;42.836;23.998;2023-11-21T06:57:20;266.83;;;134.20;;
12623;SDS011;6377;42.836;23.998;2023-11-21T06:59:48;159.20;;;91.77;;
12623;SDS011;6377;42.836;23.998;2023-11-21T07:02:16;116.90;;;72.63;;
12623;SDS011;6377;42.836;23.998;2023-11-21T07:04:44;131.30;;;76.07;;
12623;SDS011;6377;42.836;23.998;2023-11-21T07:07:11;154.00;;;86.10;;
12623;SDS011;6377;42.836;23.998;2023-11-21T07:09:39;137.93;;;81.77;;
12623;SDS011;6377;42.836;23.998;2023-11-21T07:12:09;135.90;;;75.03;;
12623;SDS011;6377;42.836;23.998;2023-11-21T07:14:36;124.73;;;72.30;;
12623;SDS011;6377;42.836;23.998;2023-11-21T07:17:07;80.30;;;48.13;;
12623;SDS011;6377;42.836;23.998;2023-11-21T07:19:35;85.53;;;48.27;;
12623;SDS011;6377;42.836;23.998;2023-11-21T07:22:02;76.23;;;46.67;;
12623;SDS011;6377;42.836;23.998;2023-11-21T07:24:31;94.77;;;54.07;;
12623;SDS011;6377;42.836;23.998;2023-11-21T07:26:58;79.57;;;44.20;;
12623;SDS011;6377;42.836;23.998;2023-11-21T07:29:26;47.43;;;31.10;;
12623;SDS011;6377;42.836;23.998;2023-11-21T07:31:55;59.03;;;36.23;;
12623;SDS011;6377;42.836;23.998;2023-11-21T07:34:23;288.27;;;124.17;;
12623;SDS011;6377;42.836;23.998;2023-11-21T07:36:50;115.87;;;59.30;;
12623;SDS011;6377;42.836;23.998;2023-11-21T07:39:18;125.70;;;64.77;;
12623;SDS011;6377;42.836;23.998;2023-11-21T07:41:46;104.13;;;61.20;;
12623;SDS011;6377;42.836;23.998;2023-11-21T07:44:15;110.57;;;66.50;;
12623;SDS011;6377;42.836;23.998;2023-11-21T07:46:45;116.17;;;65.80;;
12623;SDS011;6377;42.836;23.998;2023-11-21T07:49:12;107.40;;;63.70;;
12623;SDS011;6377;42.836;23.998;2023-11-21T07:51:42;121.80;;;71.77;;
12623;SDS011;6377;42.836;23.998;2023-11-21T07:54:10;110.97;;;70.17;;
12623;SDS011;6377;42.836;23.998;2023-11-21T07:56:37;95.63;;;60.03;;
12623;SDS011;6377;42.836;23.998;2023-11-21T07:59:04;79.00;;;50.57;;
12623;SDS011;6377;42.836;23.998;2023-11-21T08:01:31;82.10;;;48.90;;
12623;SDS011;6377;42.836;23.998;2023-11-21T08:03:58;64.07;;;41.97;;
12623;SDS011;6377;42.836;23.998;2023-11-21T08:06:28;104.03;;;60.77;;
12623;SDS011;6377;42.836;23.998;2023-11-21T08:08:57;74.00;;;45.47;;
12623;SDS011;6377;42.836;23.998;2023-11-21T08:11:24;65.87;;;42.77;;
12623;SDS011;6377;42.836;23.998;2023-11-21T08:13:54;85.60;;;54.27;;
12623;SDS011;6377;42.836;23.998;2023-11-21T08:16:22;67.53;;;43.50;;
12623;SDS011;6377;42.836;23.998;2023-11-21T08:18:49;69.57;;;42.17;;
12623;SDS011;6377;42.836;23.998;2023-11-21T08:21:16;63.47;;;41.00;;
12623;SDS011;6377;42.836;23.998;2023-11-21T08:23:44;57.03;;;39.10;;
12623;SDS011;6377;42.836;23.998;2023-11-21T08:26:13;52.27;;;35.37;;
12623;SDS011;6377;42.836;23.998;2023-11-21T08:28:43;46.77;;;30.20;;
12623;SDS011;6377;42.836;23.998;2023-11-21T08:31:10;41.60;;;29.00;;
12623;SDS011;6377;42.836;23.998;2023-11-21T08:33:37;58.07;;;40.20;;
12623;SDS011;6377;42.836;23.998;2023-11-21T08:36:06;33.40;;;23.87;;
12623;SDS011;6377;42.836;23.998;2023-11-21T08:38:34;29.00;;;20.33;;
12623;SDS011;6377;42.836;23.998;2023-11-21T08:41:03;19.57;;;12.90;;
12623;SDS011;6377;42.836;23.998;2023-11-21T08:43:34;22.00;;;14.87;;
12623;SDS011;6377;42.836;23.998;2023-11-21T08:46:05;23.80;;;15.17;;
12623;SDS011;6377;42.836;23.998;2023-11-21T08:48:34;28.37;;;17.13;;
12623;SDS011;6377;42.836;23.998;2023-11-21T08:51:02;23.03;;;16.17;;
12623;SDS011;6377;42.836;23.998;2023-11-21T08:53:30;35.33;;;22.93;;
12623;SDS011;6377;42.836;23.998;2023-11-21T08:55:58;34.60;;;20.10;;
12623;SDS011;6377;42.836;23.998;2023-11-21T08:58:25;35.73;;;20.40;;
12623;SDS011;6377;42.836;23.998;2023-11-21T09:00:54;30.63;;;18.43;;
12623;SDS011;6377;42.836;23.998;2023-11-21T09:03:21;34.40;;;23.30;;
12623;SDS011;6377;42.836;23.998;2023-11-21T09:05:48;40.50;;;23.47;;
12623;SDS011;6377;42.836;23.998;2023-11-21T09:08:16;39.43;;;26.30;;
12623;SDS011;6377;42.836;23.998;2023-11-21T09:10:43;35.13;;;21.10;;
12623;SDS011;6377;42.836;23.998;2023-11-21T09:13:12;37.90;;;24.10;;
12623;SDS011;6377;42.836;23.998;2023-11-21T09:15:41;35.37;;;24.53;;
12623;SDS011;6377;42.836;23.998;2023-11-21T09:18:13;38.17;;;24.67;;
12623;SDS011;6377;42.836;23.998;2023-11-21T09:20:40;36.97;;;24.60;;
12623;SDS011;6377;42.836;23.998;2023-11-21T09:23:08;43.87;;;28.93;;
12623;SDS011;6377;42.836;23.998;2023-11-21T09:25:35;49.17;;;30.87;;
12623;SDS011;6377;42.836;23.998;2023-11-21T09:28:03;32.13;;;20.47;;
12623;SDS011;6377;42.836;23.998;2023-11-21T09:30:33;22.87;;;14.20;;
12623;SDS011;6377;42.836;23.998;2023-11-21T09:33:00;30.23;;;16.13;;
12623;SDS011;6377;42.836;23.998;2023-11-21T09:35:29;32.60;;;16.47;;
12623;SDS011;6377;42.836;23.998;2023-11-21T09:37:56;4.60;;;4.20;;
12623;SDS011;6377;42.836;23.998;2023-11-21T09:40:24;3.13;;;2.40;;
12623;SDS011;6377;42.836;23.998;2023-11-21T09:42:54;7.80;;;5.13;;
12623;SDS011;6377;42.836;23.998;2023-11-21T09:45:24;6.53;;;3.83;;
12623;SDS011;6377;42.836;23.998;2023-11-21T09:47:53;3.47;;;2.93;;
12623;SDS011;6377;42.836;23.998;2023-11-21T09:50:21;3.73;;;2.80;;
12623;SDS011;6377;42.836;23.998;2023-11-21T09:52:52;3.67;;;2.53;;
12623;SDS011;6377;42.836;23.998;2023-11-21T09:55:26;4.00;;;2.23;;
12623;SDS011;6377;42.836;23.998;2023-11-21T09:57:55;11.60;;;3.53;;
12623;SDS011;6377;42.836;23.998;2023-11-21T10:00:23;3.73;;;2.50;;
12623;SDS011;6377;42.836;23.998;2023-11-21T10:02:53;2.73;;;2.20;;
12623;SDS011;6377;42.836;23.998;2023-11-21T10:05:22;7.80;;;5.27;;
12623;SDS011;6377;42.836;23.998;2023-11-21T10:07:51;8.13;;;4.83;;
12623;SDS011;6377;42.836;23.998;2023-11-21T10:10:19;6.17;;;2.77;;
12623;SDS011;6377;42.836;23.998;2023-11-21T10:12:49;4.97;;;3.60;;
12623;SDS011;6377;42.836;23.998;2023-11-21T10:15:20;3.27;;;2.10;;
12623;SDS011;6377;42.836;23.998;2023-11-21T10:17:48;7.10;;;4.23;;
12623;SDS011;6377;42.836;23.998;2023-11-21T10:20:18;2.73;;;2.30;;
12623;SDS011;6377;42.836;23.998;2023-11-21T10:22:46;12.13;;;7.17;;
12623;SDS011;6377;42.836;23.998;2023-11-21T10:25:14;2.43;;;1.77;;
12623;SDS011;6377;42.836;23.998;2023-11-21T10:27:47;8.23;;;5.17;;
12623;SDS011;6377;42.836;23.998;2023-11-21T10:30:16;9.57;;;5.03;;
12623;SDS011;6377;42.836;23.998;2023-11-21T10:32:43;8.27;;;4.27;;
12623;SDS011;6377;42.836;23.998;2023-11-21T10:35:11;1.97;;;1.57;;
12623;SDS011;6377;42.836;23.998;2023-11-21T10:37:39;3.83;;;3.00;;
12623;SDS011;6377;42.836;23.998;2023-11-21T10:40:07;4.47;;;3.23;;
12623;SDS011;6377;42.836;23.998;2023-11-21T10:42:38;5.37;;;4.10;;
12623;SDS011;6377;42.836;23.998;2023-11-21T10:45:06;3.90;;;3.17;;
12623;SDS011;6377;42.836;23.998;2023-11-21T10:47:38;1.60;;;1.30;;
12623;SDS011;6377;42.836;23.998;2023-11-21T10:50:06;1.20;;;1.10;;
12623;SDS011;6377;42.836;23.998;2023-11-21T10:52:36;3.30;;;2.30;;
12623;SDS011;6377;42.836;23.998;2023-11-21T10:55:12;2.33;;;1.93;;
12623;SDS011;6377;42.836;23.998;2023-11-21T10:57:45;2.40;;;2.03;;
12623;SDS011;6377;42.836;23.998;2023-11-21T11:00:15;1.50;;;1.40;;
12623;SDS011;6377;42.836;23.998;2023-11-21T11:02:46;2.53;;;1.90;;
12623;SDS011;6377;42.836;23.998;2023-11-21T11:05:15;5.70;;;2.40;;
12623;SDS011;6377;42.836;23.998;2023-11-21T11:07:45;1.80;;;1.63;;
12623;SDS011;6377;42.836;23.998;2023-11-21T11:10:19;4.03;;;2.77;;
12623;SDS011;6377;42.836;23.998;2023-11-21T11:12:49;1.50;;;1.30;;
12623;SDS011;6377;42.836;23.998;2023-11-21T11:15:17;2.80;;;2.50;;
12623;SDS011;6377;42.836;23.998;2023-11-21T11:17:45;2.67;;;2.33;;
12623;SDS011;6377;42.836;23.998;2023-11-21T11:20:14;3.17;;;2.63;;
12623;SDS011;6377;42.836;23.998;2023-11-21T11:22:44;4.20;;;2.50;;
12623;SDS011;6377;42.836;23.998;2023-11-21T11:25:22;6.63;;;4.23;;
12623;SDS011;6377;42.836;23.998;2023-11-21T11:28:00;2.90;;;2.37;;
12623;SDS011;6377;42.836;23.998;2023-11-21T11:30:37;3.17;;;2.30;;
12623;SDS011;6377;42.836;23.998;2023-11-21T11:33:19;4.20;;;2.60;;
12623;SDS011;6377;42.836;23.998;2023-11-21T11:35:53;5.47;;;2.10;;
12623;SDS011;6377;42.836;23.998;2023-11-21T11:38:30;3.60;;;2.37;;
12623;SDS011;6377;42.836;23.998;2023-11-21T11:41:00;1.93;;;1.73;;
12623;SDS011;6377;42.836;23.998;2023-11-21T11:43:31;5.53;;;3.80;;
12623;SDS011;6377;42.836;23.998;2023-11-21T11:46:09;4.83;;;2.80;;
12623;SDS011;6377;42.836;23.998;2023-11-21T11:48:41;5.53;;;3.80;;
12623;SDS011;6377;42.836;23.998;2023-11-21T11:51:11;2.97;;;2.40;;
12623;SDS011;6377;42.836;23.998;2023-11-21T11:53:44;5.27;;;3.60;;
12623;SDS011;6377;42.836;23.998;2023-11-21T11:56:20;4.10;;;3.00;;
12623;SDS011;6377;42.836;23.998;2023-11-21T12:01:51;5.73;;;4.27;;
12623;SDS011;6377;42.836;23.998;2023-11-21T12:04:25;6.80;;;5.63;;
12623;SDS011;6377;42.836;23.998;2023-11-21T12:07:00;4.83;;;3.47;;
12623;SDS011;6377;42.836;23.998;2023-11-21T12:09:30;8.87;;;6.20;;
12623;SDS011;6377;42.836;23.998;2023-11-21T12:11:58;5.67;;;4.10;;
12623;SDS011;6377;42.836;23.998;2023-11-21T12:14:27;3.57;;;2.40;;
12623;SDS011;6377;42.836;23.998;2023-11-21T12:16:58;2.47;;;1.70;;
12623;SDS011;6377;42.836;23.998;2023-11-21T12:19:25;2.40;;;1.93;;
12623;SDS011;6377;42.836;23.998;2023-11-21T12:21:53;4.47;;;2.00;;
12623;SDS011;6377;42.836;23.998;2023-11-21T12:24:21;9.23;;;5.33;;
12623;SDS011;6377;42.836;23.998;2023-11-21T12:26:49;7.43;;;3.70;;
12623;SDS011;6377;42.836;23.998;2023-11-21T12:29:16;10.20;;;4.87;;
12623;SDS011;6377;42.836;23.998;2023-11-21T12:31:53;5.93;;;3.70;;
12623;SDS011;6377;42.836;23.998;2023-11-21T12:34:24;3.80;;;3.37;;
12623;SDS011;6377;42.836;23.998;2023-11-21T12:36:51;15.07;;;11.40;;
12623;SDS011;6377;42.836;23.998;2023-11-21T12:39:20;9.40;;;5.70;;
12623;SDS011;6377;42.836;23.998;2023-11-21T12:41:48;10.50;;;5.63;;
12623;SDS011;6377;42.836;23.998;2023-11-21T12:44:16;12.80;;;6.90;;
12623;SDS011;6377;42.836;23.998;2023-11-21T12:46:43;16.23;;;9.70;;
12623;SDS011;6377;42.836;23.998;2023-11-21T12:49:13;5.20;;;4.13;;
12623;SDS011;6377;42.836;23.998;2023-11-21T12:51:43;6.37;;;4.90;;
12623;SDS011;6377;42.836;23.998;2023-11-21T12:54:11;11.60;;;7.00;;
12623;SDS011;6377;42.836;23.998;2023-11-21T12:56:40;5.70;;;4.20;;
12623;SDS011;6377;42.836;23.998;2023-11-21T12:59:08;14.97;;;7.47;;
12623;SDS011;6377;42.836;23.998;2023-11-21T13:01:41;11.03;;;6.00;;
12623;SDS011;6377;42.836;23.998;2023-11-21T13:04:10;13.07;;;7.90;;
12623;SDS011;6377;42.836;23.998;2023-11-21T13:06:37;21.30;;;14.93;;
12623;SDS011;6377;42.836;23.998;2023-11-21T13:09:06;11.00;;;7.40;;
12623;SDS011;6377;42.836;23.998;2023-11-21T13:11:36;11.30;;;7.00;;
12623;SDS011;6377;42.836;23.998;2023-11-21T13:14:06;24.53;;;15.73;;
12623;SDS011;6377;42.836;23.998;2023-11-21T13:16:35;19.83;;;12.83;;
12623;SDS011;6377;42.836;23.998;2023-11-21T13:19:04;21.83;;;15.43;;
12623;SDS011;6377;42.836;23.998;2023-11-21T13:21:34;15.83;;;9.77;;
12623;SDS011;6377;42.836;23.998;2023-11-21T13:24:10;17.83;;;11.30;;
12623;SDS011;6377;42.836;23.998;2023-11-21T13:26:37;26.27;;;18.57;;
12623;SDS011;6377;42.836;23.998;2023-11-21T13:29:06;29.93;;;17.57;;
12623;SDS011;6377;42.836;23.998;2023-11-21T13:31:33;55.23;;;33.33;;
12623;SDS011;6377;42.836;23.998;2023-11-21T13:34:02;47.10;;;29.13;;
12623;SDS011;6377;42.836;23.998;2023-11-21T13:36:35;33.07;;;21.50;;
12623;SDS011;6377;42.836;23.998;2023-11-21T13:39:02;37.10;;;27.80;;
12623;SDS011;6377;42.836;23.998;2023-11-21T13:41:33;130.80;;;63.27;;
12623;SDS011;6377;42.836;23.998;2023-11-21T13:44:03;58.13;;;35.70;;
12623;SDS011;6377;42.836;23.998;2023-11-21T13:46:41;53.57;;;33.57;;
12623;SDS011;6377;42.836;23.998;2023-11-21T13:49:11;37.90;;;23.90;;
12623;SDS011;6377;42.836;23.998;2023-11-21T13:51:40;35.77;;;26.43;;
12623;SDS011;6377;42.836;23.998;2023-11-21T13:54:12;64.13;;;44.53;;
12623;SDS011;6377;42.836;23.998;2023-11-21T13:56:40;53.00;;;33.93;;
12623;SDS011;6377;42.836;23.998;2023-11-21T13:59:09;53.47;;;35.33;;
12623;SDS011;6377;42.836;23.998;2023-11-21T14:01:44;68.37;;;44.93;;
12623;SDS011;6377;42.836;23.998;2023-11-21T14:04:20;51.27;;;33.00;;
12623;SDS011;6377;42.836;23.998;2023-11-21T14:07:02;33.23;;;22.60;;
12623;SDS011;6377;42.836;23.998;2023-11-21T14:09:45;51.50;;;38.03;;
12623;SDS011;6377;42.836;23.998;2023-11-21T14:12:15;44.30;;;28.67;;
12623;SDS011;6377;42.836;23.998;2023-11-21T14:14:42;35.57;;;24.87;;
12623;SDS011;6377;42.836;23.998;2023-11-21T14:17:10;40.27;;;27.47;;
12623;SDS011;6377;42.836;23.998;2023-11-21T14:19:37;54.37;;;36.07;;
12623;SDS011;6377;42.836;23.998;2023-11-21T14:22:09;34.47;;;21.87;;
12623;SDS011;6377;42.836;23.998;2023-11-21T14:24:37;52.23;;;34.33;;
12623;SDS011;6377;42.836;23.998;2023-11-21T14:27:09;62.43;;;39.53;;
12623;SDS011;6377;42.836;23.998;2023-11-21T14:29:36;61.73;;;37.53;;
12623;SDS011;6377;42.836;23.998;2023-11-21T14:32:05;53.23;;;31.87;;
12623;SDS011;6377;42.836;23.998;2023-11-21T14:34:33;40.33;;;25.57;;
12623;SDS011;6377;42.836;23.998;2023-11-21T14:37:00;50.77;;;29.43;;